sensor_id;sensor_type;location;lat;lon;timestamp;P1;durP1;ratioP1;P2;durP2;ratioP2
57155;SDS011;43023;59.928;10.682;2022-12-18T00:01:36;11.77;;;6.85;;
57155;SDS011;43023;59.928;10.682;2022-12-18T00:04:03;13.23;;;6.97;;
57155;SDS011;43023;59.928;10.682;2022-12-18T00:06:30;13.80;;;6.90;;
57155;SDS011;43023;59.928;10.682;2022-12-18T00:08:58;13.90;;;6.55;;
57155;SDS011;43023;59.928;10.682;2022-12-18T00:11:25;11.18;;;6.10;;
57155;SDS011;43023;59.928;10.682;2022-12-18T00:13:52;11.02;;;6.00;;
57155;SDS011;43023;59.928;10.682;2022-12-18T00:16:20;8.38;;;6.10;;
57155;SDS011;43023;59.928;10.682;2022-12-18T00:18:49;10.63;;;6.40;;
57155;SDS011;43023;59.928;10.682;2022-12-18T00:21:15;14.43;;;6.53;;
57155;SDS011;43023;59.928;10.682;2022-12-18T00:23:42;10.70;;;5.88;;
57155;SDS011;43023;59.928;10.682;2022-12-18T00:26:10;12.30;;;5.82;;
57155;SDS011;43023;59.928;10.682;2022-12-18T00:28:37;10.65;;;6.40;;
57155;SDS011;43023;59.928;10.682;2022-12-18T00:31:03;12.93;;;5.90;;
57155;SDS011;43023;59.928;10.682;2022-12-18T00:33:30;12.10;;;5.85;;
57155;SDS011;43023;59.928;10.682;2022-12-18T00:36:03;12.95;;;6.30;;
57155;SDS011;43023;59.928;10.682;2022-12-18T00:38:29;16.48;;;6.43;;
57155;SDS011;43023;59.928;10.682;2022-12-18T00:40:55;11.15;;;5.85;;
57155;SDS011;43023;59.928;10.682;2022-12-18T00:43:21;10.00;;;5.13;;
57155;SDS011;43023;59.928;10.682;2022-12-18T00:45:47;10.95;;;5.28;;
57155;SDS011;43023;59.928;10.682;2022-12-18T00:48:13;8.32;;;5.97;;
57155;SDS011;43023;59.928;10.682;2022-12-18T00:50:39;8.77;;;5.55;;
57155;SDS011;43023;59.928;10.682;2022-12-18T00:53:05;10.68;;;6.40;;
57155;SDS011;43023;59.928;10.682;2022-12-18T00:55:36;9.77;;;6.03;;
57155;SDS011;43023;59.928;10.682;2022-12-18T00:58:02;13.38;;;6.28;;
57155;SDS011;43023;59.928;10.682;2022-12-18T01:00:28;7.45;;;5.43;;
57155;SDS011;43023;59.928;10.682;2022-12-18T01:02:54;9.88;;;6.15;;
57155;SDS011;43023;59.928;10.682;2022-12-18T01:05:20;8.68;;;5.90;;
57155;SDS011;43023;59.928;10.682;2022-12-18T01:07:46;8.93;;;5.80;;
57155;SDS011;43023;59.928;10.682;2022-12-18T01:10:12;7.55;;;5.20;;
57155;SDS011;43023;59.928;10.682;2022-12-18T01:12:39;7.63;;;5.00;;
57155;SDS011;43023;59.928;10.682;2022-12-18T01:15:05;6.93;;;5.25;;
57155;SDS011;43023;59.928;10.682;2022-12-18T01:17:32;6.75;;;4.60;;
57155;SDS011;43023;59.928;10.682;2022-12-18T01:19:58;10.40;;;5.75;;
57155;SDS011;43023;59.928;10.682;2022-12-18T01:22:24;9.98;;;6.10;;
57155;SDS011;43023;59.928;10.682;2022-12-18T01:24:50;10.70;;;6.03;;
57155;SDS011;43023;59.928;10.682;2022-12-18T01:27:16;11.18;;;6.57;;
57155;SDS011;43023;59.928;10.682;2022-12-18T01:29:42;9.13;;;5.93;;
57155;SDS011;43023;59.928;10.682;2022-12-18T01:32:08;8.32;;;5.97;;
57155;SDS011;43023;59.928;10.682;2022-12-18T01:34:37;10.50;;;6.60;;
57155;SDS011;43023;59.928;10.682;2022-12-18T01:37:03;8.50;;;5.55;;
57155;SDS011;43023;59.928;10.682;2022-12-18T01:39:30;9.23;;;6.03;;
57155;SDS011;43023;59.928;10.682;2022-12-18T01:41:57;9.77;;;5.80;;
57155;SDS011;43023;59.928;10.682;2022-12-18T01:47:59;9.00;;;6.07;;
57155;SDS011;43023;59.928;10.682;2022-12-18T01:50:02;10.20;;;5.93;;
57155;SDS011;43023;59.928;10.682;2022-12-18T01:52:29;7.47;;;5.65;;
57155;SDS011;43023;59.928;10.682;2022-12-18T01:54:57;9.05;;;5.82;;
57155;SDS011;43023;59.928;10.682;2022-12-18T01:57:23;8.25;;;5.45;;
57155;SDS011;43023;59.928;10.682;2022-12-18T01:59:52;11.02;;;6.65;;
57155;SDS011;43023;59.928;10.682;2022-12-18T02:02:19;8.52;;;5.43;;
57155;SDS011;43023;59.928;10.682;2022-12-18T02:04:46;9.40;;;4.88;;
57155;SDS011;43023;59.928;10.682;2022-12-18T02:12:31;10.55;;;6.03;;
57155;SDS011;43023;59.928;10.682;2022-12-18T02:15:12;9.68;;;5.85;;
57155;SDS011;43023;59.928;10.682;2022-12-18T02:17:42;10.38;;;6.00;;
57155;SDS011;43023;59.928;10.682;2022-12-18T02:20:22;10.65;;;6.07;;
57155;SDS011;43023;59.928;10.682;2022-12-18T02:25:26;11.13;;;6.32;;
57155;SDS011;43023;59.928;10.682;2022-12-18T02:27:56;9.10;;;5.35;;
57155;SDS011;43023;59.928;10.682;2022-12-18T02:30:24;9.35;;;5.22;;
57155;SDS011;43023;59.928;10.682;2022-12-18T02:32:52;7.30;;;5.43;;
57155;SDS011;43023;59.928;10.682;2022-12-18T02:35:25;8.50;;;5.65;;
57155;SDS011;43023;59.928;10.682;2022-12-18T02:40:18;7.57;;;5.28;;
57155;SDS011;43023;59.928;10.682;2022-12-18T02:42:45;8.52;;;5.50;;
57155;SDS011;43023;59.928;10.682;2022-12-18T02:45:11;9.60;;;4.85;;
57155;SDS011;43023;59.928;10.682;2022-12-18T02:47:38;7.22;;;5.18;;
57155;SDS011;43023;59.928;10.682;2022-12-18T03:05:22;8.38;;;5.65;;
57155;SDS011;43023;59.928;10.682;2022-12-18T03:10:24;8.20;;;4.93;;
57155;SDS011;43023;59.928;10.682;2022-12-18T03:12:52;10.15;;;5.38;;
57155;SDS011;43023;59.928;10.682;2022-12-18T03:15:24;7.38;;;5.43;;
57155;SDS011;43023;59.928;10.682;2022-12-18T03:17:52;9.13;;;5.25;;
57155;SDS011;43023;59.928;10.682;2022-12-18T03:20:21;8.90;;;5.40;;
57155;SDS011;43023;59.928;10.682;2022-12-18T03:22:49;6.28;;;5.03;;
57155;SDS011;43023;59.928;10.682;2022-12-18T03:25:16;7.53;;;5.20;;
57155;SDS011;43023;59.928;10.682;2022-12-18T03:27:45;7.57;;;5.20;;
57155;SDS011;43023;59.928;10.682;2022-12-18T03:30:13;7.40;;;5.05;;
57155;SDS011;43023;59.928;10.682;2022-12-18T03:32:51;7.95;;;5.22;;
57155;SDS011;43023;59.928;10.682;2022-12-18T03:35:20;10.63;;;4.88;;
57155;SDS011;43023;59.928;10.682;2022-12-18T03:37:47;9.77;;;5.47;;
57155;SDS011;43023;59.928;10.682;2022-12-18T03:40:13;7.38;;;5.22;;
57155;SDS011;43023;59.928;10.682;2022-12-18T03:42:49;9.13;;;5.78;;
57155;SDS011;43023;59.928;10.682;2022-12-18T03:46:02;7.20;;;4.68;;
57155;SDS011;43023;59.928;10.682;2022-12-18T03:50:37;6.97;;;5.00;;
57155;SDS011;43023;59.928;10.682;2022-12-18T03:53:09;9.38;;;5.80;;
57155;SDS011;43023;59.928;10.682;2022-12-18T03:55:39;7.03;;;5.30;;
57155;SDS011;43023;59.928;10.682;2022-12-18T03:58:05;8.00;;;4.60;;
57155;SDS011;43023;59.928;10.682;2022-12-18T04:00:33;9.18;;;5.55;;
57155;SDS011;43023;59.928;10.682;2022-12-18T04:02:59;8.50;;;5.63;;
57155;SDS011;43023;59.928;10.682;2022-12-18T04:05:26;8.93;;;5.72;;
57155;SDS011;43023;59.928;10.682;2022-12-18T04:07:53;9.02;;;5.28;;
57155;SDS011;43023;59.928;10.682;2022-12-18T04:10:20;7.15;;;4.85;;
57155;SDS011;43023;59.928;10.682;2022-12-18T04:12:46;7.80;;;5.45;;
57155;SDS011;43023;59.928;10.682;2022-12-18T04:15:12;8.18;;;4.95;;
57155;SDS011;43023;59.928;10.682;2022-12-18T04:17:39;7.38;;;5.15;;
57155;SDS011;43023;59.928;10.682;2022-12-18T04:20:09;7.50;;;5.15;;
57155;SDS011;43023;59.928;10.682;2022-12-18T04:22:36;6.57;;;4.70;;
57155;SDS011;43023;59.928;10.682;2022-12-18T04:25:02;8.38;;;4.95;;
57155;SDS011;43023;59.928;10.682;2022-12-18T04:27:28;9.18;;;5.45;;
57155;SDS011;43023;59.928;10.682;2022-12-18T04:29:54;6.20;;;4.82;;
57155;SDS011;43023;59.928;10.682;2022-12-18T04:32:20;6.95;;;4.50;;
57155;SDS011;43023;59.928;10.682;2022-12-18T04:34:46;6.60;;;4.00;;
57155;SDS011;43023;59.928;10.682;2022-12-18T04:37:12;7.55;;;4.55;;
57155;SDS011;43023;59.928;10.682;2022-12-18T04:39:38;8.02;;;5.60;;
57155;SDS011;43023;59.928;10.682;2022-12-18T04:42:04;6.57;;;4.70;;
57155;SDS011;43023;59.928;10.682;2022-12-18T04:44:30;6.55;;;4.88;;
57155;SDS011;43023;59.928;10.682;2022-12-18T04:46:56;7.28;;;4.78;;
57155;SDS011;43023;59.928;10.682;2022-12-18T04:49:22;6.57;;;4.40;;
57155;SDS011;43023;59.928;10.682;2022-12-18T04:51:48;6.68;;;4.95;;
57155;SDS011;43023;59.928;10.682;2022-12-18T04:54:14;6.25;;;4.82;;
57155;SDS011;43023;59.928;10.682;2022-12-18T04:56:40;6.95;;;4.97;;
57155;SDS011;43023;59.928;10.682;2022-12-18T04:59:06;9.95;;;5.05;;
57155;SDS011;43023;59.928;10.682;2022-12-18T05:01:32;6.65;;;4.20;;
57155;SDS011;43023;59.928;10.682;2022-12-18T05:03:58;7.47;;;4.60;;
57155;SDS011;43023;59.928;10.682;2022-12-18T05:06:24;7.47;;;4.97;;
57155;SDS011;43023;59.928;10.682;2022-12-18T05:08:50;7.28;;;4.78;;
57155;SDS011;43023;59.928;10.682;2022-12-18T05:11:16;7.47;;;4.68;;
57155;SDS011;43023;59.928;10.682;2022-12-18T05:13:43;8.15;;;4.93;;
57155;SDS011;43023;59.928;10.682;2022-12-18T05:16:09;6.82;;;4.70;;
57155;SDS011;43023;59.928;10.682;2022-12-18T05:18:35;7.65;;;5.32;;
57155;SDS011;43023;59.928;10.682;2022-12-18T05:21:02;7.90;;;5.13;;
57155;SDS011;43023;59.928;10.682;2022-12-18T05:23:28;6.22;;;4.95;;
57155;SDS011;43023;59.928;10.682;2022-12-18T05:25:58;7.78;;;4.25;;
57155;SDS011;43023;59.928;10.682;2022-12-18T05:28:24;7.18;;;4.78;;
57155;SDS011;43023;59.928;10.682;2022-12-18T05:30:51;7.78;;;5.35;;
57155;SDS011;43023;59.928;10.682;2022-12-18T05:33:18;8.38;;;5.68;;
57155;SDS011;43023;59.928;10.682;2022-12-18T05:35:44;7.38;;;4.72;;
57155;SDS011;43023;59.928;10.682;2022-12-18T05:38:15;6.28;;;4.75;;
57155;SDS011;43023;59.928;10.682;2022-12-18T05:40:42;7.00;;;4.82;;
57155;SDS011;43023;59.928;10.682;2022-12-18T05:43:08;10.50;;;5.35;;
57155;SDS011;43023;59.928;10.682;2022-12-18T05:45:36;7.03;;;4.85;;
57155;SDS011;43023;59.928;10.682;2022-12-18T05:48:03;7.55;;;5.43;;
57155;SDS011;43023;59.928;10.682;2022-12-18T05:50:29;6.65;;;4.72;;
57155;SDS011;43023;59.928;10.682;2022-12-18T05:52:55;6.57;;;4.65;;
57155;SDS011;43023;59.928;10.682;2022-12-18T05:55:21;6.47;;;4.63;;
57155;SDS011;43023;59.928;10.682;2022-12-18T05:57:47;7.22;;;4.93;;
57155;SDS011;43023;59.928;10.682;2022-12-18T06:00:13;5.88;;;4.57;;
57155;SDS011;43023;59.928;10.682;2022-12-18T06:02:39;7.85;;;4.75;;
57155;SDS011;43023;59.928;10.682;2022-12-18T06:05:06;6.65;;;4.55;;
57155;SDS011;43023;59.928;10.682;2022-12-18T06:07:32;7.57;;;4.72;;
57155;SDS011;43023;59.928;10.682;2022-12-18T06:09:58;7.00;;;4.35;;
57155;SDS011;43023;59.928;10.682;2022-12-18T06:12:24;6.45;;;4.55;;
57155;SDS011;43023;59.928;10.682;2022-12-18T06:14:50;6.20;;;4.57;;
57155;SDS011;43023;59.928;10.682;2022-12-18T06:17:16;6.68;;;5.18;;
57155;SDS011;43023;59.928;10.682;2022-12-18T06:19:42;9.35;;;4.55;;
57155;SDS011;43023;59.928;10.682;2022-12-18T06:22:08;7.70;;;4.50;;
57155;SDS011;43023;59.928;10.682;2022-12-18T06:24:34;6.80;;;4.82;;
57155;SDS011;43023;59.928;10.682;2022-12-18T06:27:00;6.95;;;4.22;;
57155;SDS011;43023;59.928;10.682;2022-12-18T06:29:26;7.00;;;4.70;;
57155;SDS011;43023;59.928;10.682;2022-12-18T06:31:52;5.70;;;3.80;;
57155;SDS011;43023;59.928;10.682;2022-12-18T06:34:18;5.95;;;4.07;;
57155;SDS011;43023;59.928;10.682;2022-12-18T06:36:44;5.90;;;4.00;;
57155;SDS011;43023;59.928;10.682;2022-12-18T06:39:10;7.70;;;4.25;;
57155;SDS011;43023;59.928;10.682;2022-12-18T06:41:36;8.95;;;4.57;;
57155;SDS011;43023;59.928;10.682;2022-12-18T06:44:02;6.03;;;4.05;;
57155;SDS011;43023;59.928;10.682;2022-12-18T06:46:28;5.80;;;4.13;;
57155;SDS011;43023;59.928;10.682;2022-12-18T06:48:54;5.93;;;4.05;;
57155;SDS011;43023;59.928;10.682;2022-12-18T06:51:21;5.15;;;3.58;;
57155;SDS011;43023;59.928;10.682;2022-12-18T06:53:47;4.72;;;3.80;;
57155;SDS011;43023;59.928;10.682;2022-12-18T06:56:13;6.18;;;4.07;;
57155;SDS011;43023;59.928;10.682;2022-12-18T06:58:39;5.97;;;4.22;;
57155;SDS011;43023;59.928;10.682;2022-12-18T07:01:06;5.72;;;4.45;;
57155;SDS011;43023;59.928;10.682;2022-12-18T07:03:33;5.97;;;4.47;;
57155;SDS011;43023;59.928;10.682;2022-12-18T07:05:59;5.55;;;4.30;;
57155;SDS011;43023;59.928;10.682;2022-12-18T07:08:25;6.32;;;4.40;;
57155;SDS011;43023;59.928;10.682;2022-12-18T07:10:51;5.40;;;4.18;;
57155;SDS011;43023;59.928;10.682;2022-12-18T07:13:18;6.93;;;4.15;;
57155;SDS011;43023;59.928;10.682;2022-12-18T07:15:44;5.40;;;4.43;;
57155;SDS011;43023;59.928;10.682;2022-12-18T07:18:10;6.65;;;4.15;;
57155;SDS011;43023;59.928;10.682;2022-12-18T07:20:37;6.72;;;3.97;;
57155;SDS011;43023;59.928;10.682;2022-12-18T07:23:03;5.70;;;4.13;;
57155;SDS011;43023;59.928;10.682;2022-12-18T07:25:30;5.75;;;3.53;;
57155;SDS011;43023;59.928;10.682;2022-12-18T07:27:56;6.32;;;3.67;;
57155;SDS011;43023;59.928;10.682;2022-12-18T07:30:22;4.70;;;3.47;;
57155;SDS011;43023;59.928;10.682;2022-12-18T07:32:48;8.23;;;4.05;;
57155;SDS011;43023;59.928;10.682;2022-12-18T07:35:14;6.72;;;4.20;;
57155;SDS011;43023;59.928;10.682;2022-12-18T07:37:40;5.38;;;3.95;;
57155;SDS011;43023;59.928;10.682;2022-12-18T07:40:07;4.88;;;3.30;;
57155;SDS011;43023;59.928;10.682;2022-12-18T07:42:33;6.05;;;3.58;;
57155;SDS011;43023;59.928;10.682;2022-12-18T07:45:00;6.90;;;3.85;;
57155;SDS011;43023;59.928;10.682;2022-12-18T07:47:27;4.50;;;3.67;;
57155;SDS011;43023;59.928;10.682;2022-12-18T07:49:53;5.43;;;3.63;;
57155;SDS011;43023;59.928;10.682;2022-12-18T07:52:19;6.65;;;3.58;;
57155;SDS011;43023;59.928;10.682;2022-12-18T07:54:45;4.53;;;3.70;;
57155;SDS011;43023;59.928;10.682;2022-12-18T07:57:13;6.45;;;4.28;;
57155;SDS011;43023;59.928;10.682;2022-12-18T07:59:41;5.55;;;3.80;;
57155;SDS011;43023;59.928;10.682;2022-12-18T08:02:07;6.35;;;3.80;;
57155;SDS011;43023;59.928;10.682;2022-12-18T08:04:33;6.60;;;3.90;;
57155;SDS011;43023;59.928;10.682;2022-12-18T08:06:59;4.35;;;2.90;;
57155;SDS011;43023;59.928;10.682;2022-12-18T08:09:25;5.45;;;3.40;;
57155;SDS011;43023;59.928;10.682;2022-12-18T08:11:51;4.97;;;3.50;;
57155;SDS011;43023;59.928;10.682;2022-12-18T08:14:17;4.10;;;3.13;;
57155;SDS011;43023;59.928;10.682;2022-12-18T08:16:43;4.72;;;2.90;;
57155;SDS011;43023;59.928;10.682;2022-12-18T08:19:09;5.75;;;2.83;;
57155;SDS011;43023;59.928;10.682;2022-12-18T08:21:35;4.95;;;3.75;;
57155;SDS011;43023;59.928;10.682;2022-12-18T08:24:01;5.50;;;3.53;;
57155;SDS011;43023;59.928;10.682;2022-12-18T08:26:29;2.78;;;2.58;;
57155;SDS011;43023;59.928;10.682;2022-12-18T08:28:57;4.43;;;3.45;;
57155;SDS011;43023;59.928;10.682;2022-12-18T08:31:23;5.03;;;3.03;;
57155;SDS011;43023;59.928;10.682;2022-12-18T08:33:50;5.30;;;3.15;;
57155;SDS011;43023;59.928;10.682;2022-12-18T08:36:16;3.88;;;2.65;;
57155;SDS011;43023;59.928;10.682;2022-12-18T08:38:42;4.78;;;3.10;;
57155;SDS011;43023;59.928;10.682;2022-12-18T08:41:09;4.90;;;3.17;;
57155;SDS011;43023;59.928;10.682;2022-12-18T08:43:35;4.90;;;3.28;;
57155;SDS011;43023;59.928;10.682;2022-12-18T08:46:31;6.43;;;3.13;;
57155;SDS011;43023;59.928;10.682;2022-12-18T08:48:58;5.97;;;3.72;;
57155;SDS011;43023;59.928;10.682;2022-12-18T08:51:24;3.78;;;2.97;;
57155;SDS011;43023;59.928;10.682;2022-12-18T08:53:50;5.72;;;4.10;;
57155;SDS011;43023;59.928;10.682;2022-12-18T08:56:16;4.47;;;3.17;;
57155;SDS011;43023;59.928;10.682;2022-12-18T08:58:42;4.95;;;3.55;;
57155;SDS011;43023;59.928;10.682;2022-12-18T09:01:09;5.47;;;3.40;;
57155;SDS011;43023;59.928;10.682;2022-12-18T09:03:35;9.75;;;3.38;;
57155;SDS011;43023;59.928;10.682;2022-12-18T09:06:02;7.72;;;3.58;;
57155;SDS011;43023;59.928;10.682;2022-12-18T09:08:28;6.40;;;3.47;;
57155;SDS011;43023;59.928;10.682;2022-12-18T09:10:54;3.55;;;2.85;;
57155;SDS011;43023;59.928;10.682;2022-12-18T09:13:20;9.88;;;3.28;;
57155;SDS011;43023;59.928;10.682;2022-12-18T09:15:47;7.55;;;3.15;;
57155;SDS011;43023;59.928;10.682;2022-12-18T09:18:14;4.97;;;3.30;;
57155;SDS011;43023;59.928;10.682;2022-12-18T09:20:40;8.23;;;3.60;;
57155;SDS011;43023;59.928;10.682;2022-12-18T09:23:07;6.00;;;3.22;;
57155;SDS011;43023;59.928;10.682;2022-12-18T09:25:33;6.43;;;3.53;;
57155;SDS011;43023;59.928;10.682;2022-12-18T09:28:01;9.15;;;3.55;;
57155;SDS011;43023;59.928;10.682;2022-12-18T09:30:27;6.30;;;3.45;;
57155;SDS011;43023;59.928;10.682;2022-12-18T09:32:53;5.43;;;3.63;;
57155;SDS011;43023;59.928;10.682;2022-12-18T09:35:19;5.32;;;3.47;;
57155;SDS011;43023;59.928;10.682;2022-12-18T09:37:45;4.75;;;3.40;;
57155;SDS011;43023;59.928;10.682;2022-12-18T09:40:16;8.27;;;3.75;;
57155;SDS011;43023;59.928;10.682;2022-12-18T09:42:43;11.40;;;4.78;;
57155;SDS011;43023;59.928;10.682;2022-12-18T09:45:12;5.00;;;3.63;;
57155;SDS011;43023;59.928;10.682;2022-12-18T09:47:39;9.18;;;5.03;;
57155;SDS011;43023;59.928;10.682;2022-12-18T09:50:16;6.78;;;4.03;;
57155;SDS011;43023;59.928;10.682;2022-12-18T09:52:47;12.52;;;4.57;;
57155;SDS011;43023;59.928;10.682;2022-12-18T09:55:17;6.60;;;4.13;;
57155;SDS011;43023;59.928;10.682;2022-12-18T09:57:48;7.95;;;5.10;;
57155;SDS011;43023;59.928;10.682;2022-12-18T10:00:16;10.18;;;4.45;;
57155;SDS011;43023;59.928;10.682;2022-12-18T10:02:43;7.82;;;4.57;;
57155;SDS011;43023;59.928;10.682;2022-12-18T10:05:14;6.20;;;4.43;;
57155;SDS011;43023;59.928;10.682;2022-12-18T10:07:57;8.68;;;4.90;;
57155;SDS011;43023;59.928;10.682;2022-12-18T10:13:38;9.15;;;4.30;;
57155;SDS011;43023;59.928;10.682;2022-12-18T10:18:40;9.38;;;4.40;;
57155;SDS011;43023;59.928;10.682;2022-12-18T10:23:42;8.40;;;3.70;;
57155;SDS011;43023;59.928;10.682;2022-12-18T10:26:12;3.88;;;3.17;;
57155;SDS011;43023;59.928;10.682;2022-12-18T10:28:39;7.38;;;3.35;;
57155;SDS011;43023;59.928;10.682;2022-12-18T10:31:05;13.05;;;3.90;;
57155;SDS011;43023;59.928;10.682;2022-12-18T10:33:32;6.40;;;3.50;;
57155;SDS011;43023;59.928;10.682;2022-12-18T10:35:58;11.60;;;3.35;;
57155;SDS011;43023;59.928;10.682;2022-12-18T10:38:28;6.07;;;3.30;;
57155;SDS011;43023;59.928;10.682;2022-12-18T10:43:25;6.28;;;3.00;;
57155;SDS011;43023;59.928;10.682;2022-12-18T10:46:02;9.88;;;3.03;;
57155;SDS011;43023;59.928;10.682;2022-12-18T10:48:29;4.95;;;3.15;;
57155;SDS011;43023;59.928;10.682;2022-12-18T10:50:55;5.40;;;3.50;;
57155;SDS011;43023;59.928;10.682;2022-12-18T10:53:23;5.63;;;2.97;;
57155;SDS011;43023;59.928;10.682;2022-12-18T10:55:50;5.53;;;3.22;;
57155;SDS011;43023;59.928;10.682;2022-12-18T10:58:22;4.10;;;2.83;;
57155;SDS011;43023;59.928;10.682;2022-12-18T11:01:05;3.92;;;3.17;;
57155;SDS011;43023;59.928;10.682;2022-12-18T11:03:42;4.78;;;3.40;;
57155;SDS011;43023;59.928;10.682;2022-12-18T11:06:18;6.57;;;3.15;;
57155;SDS011;43023;59.928;10.682;2022-12-18T11:11:32;4.10;;;3.03;;
57155;SDS011;43023;59.928;10.682;2022-12-18T11:16:28;6.40;;;3.53;;
57155;SDS011;43023;59.928;10.682;2022-12-18T11:18:59;5.85;;;2.70;;
57155;SDS011;43023;59.928;10.682;2022-12-18T11:21:39;4.60;;;2.63;;
57155;SDS011;43023;59.928;10.682;2022-12-18T11:24:07;10.40;;;2.72;;
57155;SDS011;43023;59.928;10.682;2022-12-18T11:26:41;7.00;;;2.75;;
57155;SDS011;43023;59.928;10.682;2022-12-18T11:29:09;4.22;;;3.08;;
57155;SDS011;43023;59.928;10.682;2022-12-18T11:31:35;3.90;;;2.78;;
57155;SDS011;43023;59.928;10.682;2022-12-18T11:34:45;5.03;;;2.55;;
57155;SDS011;43023;59.928;10.682;2022-12-18T11:36:51;5.88;;;2.80;;
57155;SDS011;43023;59.928;10.682;2022-12-18T11:39:19;7.40;;;2.95;;
57155;SDS011;43023;59.928;10.682;2022-12-18T11:42:00;8.50;;;3.80;;
57155;SDS011;43023;59.928;10.682;2022-12-18T11:47:19;4.10;;;3.13;;
57155;SDS011;43023;59.928;10.682;2022-12-18T11:49:50;7.63;;;3.42;;
57155;SDS011;43023;59.928;10.682;2022-12-18T11:52:19;8.48;;;3.28;;
57155;SDS011;43023;59.928;10.682;2022-12-18T11:54:45;11.25;;;2.95;;
57155;SDS011;43023;59.928;10.682;2022-12-18T12:26:09;9.82;;;5.38;;
57155;SDS011;43023;59.928;10.682;2022-12-18T12:31:52;7.35;;;5.00;;
57155;SDS011;43023;59.928;10.682;2022-12-18T12:39:44;8.38;;;5.00;;
57155;SDS011;43023;59.928;10.682;2022-12-18T12:42:20;10.77;;;5.25;;
57155;SDS011;43023;59.928;10.682;2022-12-18T12:45:13;10.38;;;4.97;;
57155;SDS011;43023;59.928;10.682;2022-12-18T12:47:42;10.57;;;5.47;;
57155;SDS011;43023;59.928;10.682;2022-12-18T12:50:14;8.98;;;5.22;;
57155;SDS011;43023;59.928;10.682;2022-12-18T12:52:42;7.20;;;4.85;;
57155;SDS011;43023;59.928;10.682;2022-12-18T12:55:14;9.02;;;5.80;;
57155;SDS011;43023;59.928;10.682;2022-12-18T12:58:17;12.60;;;4.53;;
57155;SDS011;43023;59.928;10.682;2022-12-18T13:03:34;7.75;;;4.47;;
57155;SDS011;43023;59.928;10.682;2022-12-18T13:06:08;8.88;;;5.47;;
57155;SDS011;43023;59.928;10.682;2022-12-18T13:14:23;13.07;;;5.65;;
57155;SDS011;43023;59.928;10.682;2022-12-18T13:16:49;8.57;;;5.00;;
57155;SDS011;43023;59.928;10.682;2022-12-18T13:19:22;8.43;;;4.70;;
57155;SDS011;43023;59.928;10.682;2022-12-18T13:21:53;9.55;;;5.13;;
57155;SDS011;43023;59.928;10.682;2022-12-18T13:24:24;12.15;;;5.00;;
57155;SDS011;43023;59.928;10.682;2022-12-18T13:26:51;6.40;;;4.45;;
57155;SDS011;43023;59.928;10.682;2022-12-18T13:32:02;9.32;;;4.95;;
57155;SDS011;43023;59.928;10.682;2022-12-18T13:34:29;9.10;;;4.88;;
57155;SDS011;43023;59.928;10.682;2022-12-18T13:39:40;9.13;;;4.68;;
57155;SDS011;43023;59.928;10.682;2022-12-18T13:44:33;9.35;;;4.10;;
57155;SDS011;43023;59.928;10.682;2022-12-18T13:47:00;7.10;;;4.53;;
57155;SDS011;43023;59.928;10.682;2022-12-18T13:49:43;8.23;;;4.55;;
57155;SDS011;43023;59.928;10.682;2022-12-18T13:52:16;5.78;;;3.92;;
57155;SDS011;43023;59.928;10.682;2022-12-18T13:54:43;7.00;;;4.78;;
57155;SDS011;43023;59.928;10.682;2022-12-18T13:57:27;6.78;;;4.13;;
57155;SDS011;43023;59.928;10.682;2022-12-18T13:59:53;6.40;;;3.80;;
57155;SDS011;43023;59.928;10.682;2022-12-18T14:02:23;5.65;;;3.42;;
57155;SDS011;43023;59.928;10.682;2022-12-18T14:04:50;6.20;;;3.53;;
57155;SDS011;43023;59.928;10.682;2022-12-18T14:07:17;4.20;;;3.38;;
57155;SDS011;43023;59.928;10.682;2022-12-18T14:09:45;7.28;;;4.20;;
57155;SDS011;43023;59.928;10.682;2022-12-18T14:12:18;5.35;;;3.67;;
57155;SDS011;43023;59.928;10.682;2022-12-18T14:15:05;6.32;;;3.97;;
57155;SDS011;43023;59.928;10.682;2022-12-18T14:17:32;5.70;;;3.92;;
57155;SDS011;43023;59.928;10.682;2022-12-18T14:19:58;5.13;;;3.53;;
57155;SDS011;43023;59.928;10.682;2022-12-18T14:22:24;7.70;;;3.63;;
57155;SDS011;43023;59.928;10.682;2022-12-18T14:30:23;7.85;;;3.80;;
57155;SDS011;43023;59.928;10.682;2022-12-18T14:33:26;6.57;;;4.07;;
57155;SDS011;43023;59.928;10.682;2022-12-18T14:35:58;6.10;;;4.15;;
57155;SDS011;43023;59.928;10.682;2022-12-18T14:38:29;5.80;;;4.15;;
57155;SDS011;43023;59.928;10.682;2022-12-18T14:41:05;6.78;;;4.10;;
57155;SDS011;43023;59.928;10.682;2022-12-18T14:43:35;6.70;;;3.95;;
57155;SDS011;43023;59.928;10.682;2022-12-18T14:46:02;6.15;;;4.30;;
57155;SDS011;43023;59.928;10.682;2022-12-18T14:51:15;5.45;;;3.72;;
57155;SDS011;43023;59.928;10.682;2022-12-18T14:53:45;6.65;;;4.20;;
57155;SDS011;43023;59.928;10.682;2022-12-18T14:56:14;5.82;;;3.90;;
57155;SDS011;43023;59.928;10.682;2022-12-18T14:58:44;3.92;;;3.22;;
57155;SDS011;43023;59.928;10.682;2022-12-18T15:01:17;5.93;;;4.18;;
57155;SDS011;43023;59.928;10.682;2022-12-18T15:03:43;5.22;;;3.80;;
57155;SDS011;43023;59.928;10.682;2022-12-18T15:06:24;5.70;;;3.63;;
57155;SDS011;43023;59.928;10.682;2022-12-18T15:08:51;7.75;;;4.07;;
57155;SDS011;43023;59.928;10.682;2022-12-18T15:11:54;6.63;;;3.90;;
57155;SDS011;43023;59.928;10.682;2022-12-18T15:16:54;6.45;;;4.18;;
57155;SDS011;43023;59.928;10.682;2022-12-18T15:19:27;6.53;;;3.45;;
57155;SDS011;43023;59.928;10.682;2022-12-18T15:21:57;8.20;;;3.80;;
57155;SDS011;43023;59.928;10.682;2022-12-18T15:24:24;5.43;;;3.97;;
57155;SDS011;43023;59.928;10.682;2022-12-18T15:26:52;7.10;;;4.20;;
57155;SDS011;43023;59.928;10.682;2022-12-18T15:29:19;4.55;;;3.80;;
57155;SDS011;43023;59.928;10.682;2022-12-18T15:32:05;7.07;;;4.70;;
57155;SDS011;43023;59.928;10.682;2022-12-18T15:34:40;7.65;;;4.45;;
57155;SDS011;43023;59.928;10.682;2022-12-18T15:37:06;7.35;;;4.78;;
57155;SDS011;43023;59.928;10.682;2022-12-18T15:39:33;7.40;;;4.47;;
57155;SDS011;43023;59.928;10.682;2022-12-18T15:42:01;5.80;;;4.30;;
57155;SDS011;43023;59.928;10.682;2022-12-18T15:44:45;8.02;;;4.55;;
57155;SDS011;43023;59.928;10.682;2022-12-18T15:47:12;7.10;;;4.70;;
57155;SDS011;43023;59.928;10.682;2022-12-18T15:49:38;6.32;;;4.20;;
57155;SDS011;43023;59.928;10.682;2022-12-18T15:52:05;6.95;;;4.32;;
57155;SDS011;43023;59.928;10.682;2022-12-18T15:54:31;6.78;;;4.82;;
57155;SDS011;43023;59.928;10.682;2022-12-18T15:57:16;7.07;;;5.03;;
57155;SDS011;43023;59.928;10.682;2022-12-18T15:59:48;9.13;;;5.75;;
57155;SDS011;43023;59.928;10.682;2022-12-18T16:02:15;7.35;;;5.15;;
57155;SDS011;43023;59.928;10.682;2022-12-18T16:04:41;7.68;;;4.45;;
57155;SDS011;43023;59.928;10.682;2022-12-18T16:07:08;6.28;;;5.07;;
57155;SDS011;43023;59.928;10.682;2022-12-18T16:09:35;10.05;;;5.28;;
57155;SDS011;43023;59.928;10.682;2022-12-18T16:12:01;6.95;;;5.28;;
57155;SDS011;43023;59.928;10.682;2022-12-18T16:14:30;10.30;;;5.20;;
57155;SDS011;43023;59.928;10.682;2022-12-18T16:16:57;8.63;;;4.85;;
57155;SDS011;43023;59.928;10.682;2022-12-18T16:19:23;6.45;;;4.70;;
57155;SDS011;43023;59.928;10.682;2022-12-18T16:21:50;8.60;;;5.28;;
57155;SDS011;43023;59.928;10.682;2022-12-18T16:24:17;8.35;;;5.22;;
57155;SDS011;43023;59.928;10.682;2022-12-18T16:26:44;7.80;;;5.63;;
57155;SDS011;43023;59.928;10.682;2022-12-18T16:29:10;12.00;;;4.82;;
57155;SDS011;43023;59.928;10.682;2022-12-18T16:31:36;11.38;;;5.95;;
57155;SDS011;43023;59.928;10.682;2022-12-18T16:34:10;7.43;;;5.07;;
57155;SDS011;43023;59.928;10.682;2022-12-18T16:36:36;8.67;;;4.77;;
57155;SDS011;43023;59.928;10.682;2022-12-18T16:39:03;9.95;;;5.22;;